Tropical Cyclones
[Index]
Main Index Home Page Stock Weather Photos Extreme Storms Discussion Storm News and Storm Chasing Reports Tropical Cyclones / Hurricanes / Typhoons Weather Data and Links Wild Fires / Bushfires Weather Observation Techniques Weather Picture Catalogue Tornado Pictures and Reports Stock Video Footage and DVDs for sale
Season 1996-1997 Tropical Cyclone 199697_14 Track Map
Season 1996-1997 Summaries: [BoM-AU] [JTWC-AU] [JTWC-SIO] [JTWC-SPAC] [JTWC-SH]
<<- Previous TC | BoM 1996-1997 Season | Next TC ->>

click for intensity scale information  Lat/long Grid: Show Hide

 Date Labels: Show Hide

Bureau of Meteorology Tropical Cyclone Data

Name: 199697_14
Number: 805 / 199697_14

07 Jan 1997 12:00 UTC to 13 Jan 1997 18:00 UTC

    date/time    lat    long    hPa   cat  kts
1997-01-07 12   15.7    92.8                14          
1997-01-07 18   15.7    92.7                19          
1997-01-08 00   15.7    92.7                19          
1997-01-08 06   15.7    92.6                19          
1997-01-08 12   15.7    92.5                19          
1997-01-08 18   15.7    92.4                19          
1997-01-09 00   15.7    92.3                19          
1997-01-09 06   15.8    92.2                19          
1997-01-09 12   16.0    92.1                23          
1997-01-09 18   16.4    92.1                23          
1997-01-10 00   16.8    92.1                23          
1997-01-10 06   17.1    92.1                23          
1997-01-10 12   17.4    92.1                23          
1997-01-10 18   17.8    92.1                27          
1997-01-11 00   18.2    92.1                33          
1997-01-11 06   18.6    92.0                37          
1997-01-11 12   19.2    91.6                43          
1997-01-11 18   19.8    90.9                43          
1997-01-12 00   20.5    90.0                43          
1997-01-12 06   21.1    89.0                43          
1997-01-12 12   21.8    88.0                37          
1997-01-12 18   22.7    86.8                33          
1997-01-13 00   23.6    85.6                33          
1997-01-13 06   24.6    84.2                33          
1997-01-13 12   25.5    82.8                33          
1997-01-13 18   26.1    81.9                27          
Winds are 10-min average.

Tropical cyclone tracks developed by Michael Bath using data from the Bureau of Meteorology and Google Maps.


[Australian Severe Weather index] [Copyright Notice] [Email Contacts] [Search This Site] [Privacy Policy]
Document: tropical_cyclone_199697_14.htm Updated: 30 May 2013